createdAt,value
2023-05-20T00:01:26.537Z,99.90
2023-05-20T00:03:53.658Z,99.90
2023-05-20T00:06:21.042Z,99.90
2023-05-20T00:08:48.119Z,99.90
2023-05-20T00:11:15.161Z,99.90
2023-05-20T00:13:42.197Z,99.90
2023-05-20T00:16:09.381Z,99.90
2023-05-20T00:18:36.409Z,99.90
2023-05-20T00:21:03.372Z,99.90
2023-05-20T00:23:30.398Z,99.90
2023-05-20T00:25:59.168Z,99.90
2023-05-20T00:28:27.650Z,99.90
2023-05-20T00:30:55.629Z,99.90
2023-05-20T00:33:22.760Z,99.90
2023-05-20T00:35:49.796Z,99.90
2023-05-20T00:38:17.842Z,99.90
2023-05-20T00:40:44.816Z,99.90
2023-05-20T00:43:11.912Z,99.90
2023-05-20T00:45:39.417Z,99.90
2023-05-20T00:48:07.477Z,99.90
2023-05-20T00:50:34.611Z,99.90
2023-05-20T00:53:02.387Z,99.90
2023-05-20T00:55:29.777Z,99.90
2023-05-20T00:57:57.071Z,99.90
2023-05-20T01:00:24.269Z,99.90
2023-05-20T01:02:51.796Z,99.90
2023-05-20T01:05:18.860Z,99.90
2023-05-20T01:07:45.958Z,99.90
2023-05-20T01:10:13.007Z,99.90
2023-05-20T01:12:45.913Z,99.90
2023-05-20T01:15:15.824Z,99.90
2023-05-20T01:17:48.868Z,99.90
2023-05-20T01:20:16.163Z,99.90
2023-05-20T01:22:57.236Z,99.90
2023-05-20T01:25:25.265Z,99.90
2023-05-20T01:27:53.689Z,99.90
2023-05-20T01:30:22.228Z,99.90
2023-05-20T01:32:52.841Z,99.90
2023-05-20T01:35:22.452Z,99.90
2023-05-20T01:37:52.461Z,99.90
2023-05-20T01:40:20.167Z,99.90
2023-05-20T01:42:53.238Z,99.90
2023-05-20T01:45:21.204Z,99.90
2023-05-20T01:47:50.066Z,99.90
2023-05-20T01:50:17.317Z,99.90
2023-05-20T01:52:44.467Z,99.90
2023-05-20T01:55:11.609Z,99.90
2023-05-20T01:57:38.580Z,99.90
2023-05-20T02:00:07.012Z,99.90
2023-05-20T02:02:34.288Z,99.90
2023-05-20T02:05:01.476Z,99.90
2023-05-20T02:07:28.478Z,99.90
2023-05-20T02:09:55.683Z,99.90
2023-05-20T02:12:22.690Z,99.90
2023-05-20T02:14:50.760Z,99.90
2023-05-20T02:17:18.446Z,99.90
2023-05-20T02:19:46.779Z,99.90
2023-05-20T02:22:14.626Z,99.90
2023-05-20T02:24:43.544Z,99.90
2023-05-20T02:27:10.916Z,99.90
2023-05-20T02:29:38.057Z,99.90
2023-05-20T02:32:05.379Z,99.90
2023-05-20T02:34:33.284Z,99.90
2023-05-20T02:37:00.458Z,99.90
2023-05-20T02:39:28.617Z,99.90
2023-05-20T02:41:56.441Z,99.90
2023-05-20T02:44:23.619Z,99.90
2023-05-20T02:46:50.778Z,99.90
2023-05-20T02:49:17.710Z,99.90
2023-05-20T02:51:44.838Z,99.90
2023-05-20T02:54:12.222Z,99.90
2023-05-20T02:56:39.405Z,99.90
2023-05-20T02:59:07.367Z,99.90
2023-05-20T03:01:35.692Z,99.90
2023-05-20T03:04:03.470Z,99.90
2023-05-20T03:06:32.200Z,99.90
2023-05-20T03:08:59.684Z,99.90
2023-05-20T03:11:26.656Z,99.90
2023-05-20T03:13:53.804Z,99.90
2023-05-20T03:16:20.945Z,99.90
2023-05-20T03:18:48.439Z,99.90
2023-05-20T03:21:15.702Z,99.90
2023-05-20T03:23:42.726Z,99.90
2023-05-20T03:26:09.692Z,99.90
2023-05-20T03:28:36.883Z,99.90
2023-05-20T03:31:04.594Z,99.90
2023-05-20T03:33:31.656Z,99.90
2023-05-20T03:35:58.799Z,99.90
2023-05-20T03:38:25.852Z,99.90
2023-05-20T03:40:52.824Z,99.90
2023-05-20T03:43:19.834Z,99.90
2023-05-20T03:45:46.784Z,99.90
2023-05-20T03:48:13.804Z,99.90
2023-05-20T03:50:40.912Z,99.90
2023-05-20T03:53:07.906Z,99.90
2023-05-20T03:55:35.213Z,99.90
2023-05-20T03:58:02.669Z,99.90
2023-05-20T04:00:34.556Z,99.90
2023-05-20T04:03:02.197Z,99.90
2023-05-20T04:05:29.299Z,99.90
2023-05-20T04:07:57.618Z,99.90
2023-05-20T04:10:24.719Z,99.90
2023-05-20T04:12:52.568Z,99.90
2023-05-20T04:15:19.747Z,99.90
2023-05-20T04:17:48.615Z,99.90
2023-05-20T04:20:18.063Z,99.90
2023-05-20T04:22:45.729Z,99.90
2023-05-20T04:25:14.034Z,99.90
2023-05-20T04:27:41.084Z,99.90
2023-05-20T04:30:08.383Z,99.90
2023-05-20T04:32:36.012Z,99.90
2023-05-20T04:35:03.177Z,99.90
2023-05-20T04:37:32.148Z,99.90
2023-05-20T04:39:59.317Z,99.90
2023-05-20T04:42:26.282Z,99.90
2023-05-20T04:44:53.747Z,99.90
2023-05-20T04:47:20.839Z,99.90
2023-05-20T04:49:48.018Z,99.90
2023-05-20T04:52:14.966Z,99.90
2023-05-20T04:54:41.934Z,99.90
2023-05-20T04:57:09.085Z,99.90
2023-05-20T04:59:36.123Z,99.90
2023-05-20T05:02:03.119Z,99.90
2023-05-20T05:04:30.176Z,99.90
2023-05-20T05:06:57.161Z,99.90
2023-05-20T05:09:24.281Z,99.90
2023-05-20T05:11:51.442Z,99.90
2023-05-20T05:14:18.442Z,99.90
2023-05-20T05:16:45.753Z,99.90
2023-05-20T05:19:13.849Z,99.90
2023-05-20T05:21:41.001Z,99.90
2023-05-20T05:24:08.520Z,99.90
2023-05-20T05:26:35.656Z,99.90
2023-05-20T05:29:02.601Z,99.90
2023-05-20T05:31:29.617Z,99.90
2023-05-20T05:33:59.684Z,99.90
2023-05-20T05:36:26.831Z,99.90
2023-05-20T05:38:53.768Z,99.90
2023-05-20T05:41:21.819Z,99.90
2023-05-20T05:43:48.765Z,99.90
2023-05-20T05:46:15.919Z,99.90
2023-05-20T05:48:43.030Z,99.90
2023-05-20T05:51:10.389Z,99.90
2023-05-20T05:53:37.387Z,99.90
2023-05-20T05:56:04.600Z,99.90
2023-05-20T05:58:32.069Z,99.90
2023-05-20T06:00:59.262Z,99.90
2023-05-20T06:03:26.857Z,99.90
2023-05-20T06:05:53.928Z,99.90
2023-05-20T06:08:20.990Z,99.90
2023-05-20T06:10:49.659Z,99.90
2023-05-20T06:13:17.076Z,99.90
2023-05-20T06:15:46.247Z,99.80
2023-05-20T06:18:13.617Z,99.40
2023-05-20T06:20:41.158Z,99.30
2023-05-20T06:23:08.159Z,98.90
2023-05-20T06:25:35.259Z,99.10
2023-05-20T06:28:02.497Z,99.00
2023-05-20T06:30:29.487Z,98.60
2023-05-20T06:32:56.624Z,98.60
2023-05-20T06:35:23.648Z,98.70
2023-05-20T06:37:50.744Z,98.20
2023-05-20T06:40:17.893Z,98.20
2023-05-20T06:42:44.993Z,97.90
2023-05-20T06:45:12.369Z,97.40
2023-05-20T06:47:39.619Z,96.80
2023-05-20T06:50:07.055Z,96.20
2023-05-20T06:52:34.100Z,95.00
2023-05-20T06:55:01.098Z,94.10
2023-05-20T06:57:28.115Z,94.30
2023-05-20T06:59:55.110Z,94.90
2023-05-20T07:02:22.809Z,94.90
2023-05-20T07:04:50.081Z,94.40
2023-05-20T07:07:17.546Z,94.70
2023-05-20T07:09:45.261Z,94.10
2023-05-20T07:12:12.343Z,93.50
2023-05-20T07:14:39.286Z,93.10
2023-05-20T07:17:06.729Z,92.90
2023-05-20T07:19:33.981Z,93.30
2023-05-20T07:22:01.237Z,93.20
2023-05-20T07:24:28.315Z,92.80
2023-05-20T07:26:55.402Z,93.50
2023-05-20T07:29:22.401Z,93.20
2023-05-20T07:31:49.574Z,92.60
2023-05-20T07:34:16.648Z,91.80
2023-05-20T07:36:43.893Z,92.50
2023-05-20T07:39:14.365Z,92.50
2023-05-20T07:41:42.446Z,91.40
2023-05-20T07:44:11.477Z,91.30
2023-05-20T07:46:39.008Z,90.20
2023-05-20T07:49:09.186Z,89.70
2023-05-20T07:51:39.388Z,88.70
2023-05-20T07:54:06.543Z,88.20
2023-05-20T07:56:33.516Z,89.70
2023-05-20T07:59:01.108Z,88.50
2023-05-20T08:01:28.140Z,88.00
2023-05-20T08:03:55.627Z,86.90
2023-05-20T08:06:24.449Z,86.80
2023-05-20T08:08:51.638Z,87.60
2023-05-20T08:11:18.752Z,89.60
2023-05-20T08:13:46.017Z,89.80
2023-05-20T08:16:13.026Z,87.20
2023-05-20T08:18:40.073Z,85.30
2023-05-20T08:21:10.229Z,85.70
2023-05-20T08:23:39.653Z,85.70
2023-05-20T08:26:07.805Z,86.70
2023-05-20T08:28:34.904Z,84.00
2023-05-20T08:31:02.516Z,82.50
2023-05-20T08:33:29.660Z,81.20
2023-05-20T08:35:56.940Z,82.00
2023-05-20T08:38:23.901Z,84.10
2023-05-20T08:40:58.105Z,83.10
2023-05-20T08:43:26.511Z,81.60
2023-05-20T08:45:53.597Z,81.80
2023-05-20T08:48:23.802Z,81.30
2023-05-20T08:50:52.730Z,79.50
2023-05-20T08:53:22.122Z,79.40
2023-05-20T08:56:00.760Z,78.40
2023-05-20T08:58:31.810Z,77.40
2023-05-20T09:00:59.179Z,75.40
2023-05-20T09:03:26.578Z,76.50
2023-05-20T09:05:53.967Z,73.60
2023-05-20T09:08:26.648Z,74.70
2023-05-20T09:10:54.638Z,72.80
2023-05-20T09:13:23.758Z,75.10
2023-05-20T09:15:51.392Z,73.80
2023-05-20T09:18:18.551Z,72.20
2023-05-20T09:20:50.990Z,71.70
2023-05-20T09:23:21.867Z,71.40
2023-05-20T09:25:52.542Z,71.70
2023-05-20T09:28:20.982Z,71.30
2023-05-20T09:30:50.884Z,71.40
2023-05-20T09:33:18.276Z,71.00
2023-05-20T09:35:45.325Z,69.50
2023-05-20T09:38:14.263Z,68.40
2023-05-20T09:40:43.746Z,69.70
2023-05-20T09:43:11.665Z,69.50
2023-05-20T09:45:40.549Z,69.40
2023-05-20T09:48:11.021Z,69.50
2023-05-20T09:50:38.504Z,70.90
2023-05-20T09:53:06.608Z,70.80
2023-05-20T09:55:34.437Z,69.80
2023-05-20T09:58:03.454Z,70.80
2023-05-20T10:00:31.740Z,69.70
2023-05-20T10:02:59.674Z,69.10
2023-05-20T10:05:52.859Z,71.00
2023-05-20T10:08:34.844Z,72.10
2023-05-20T10:11:19.908Z,71.70
2023-05-20T10:14:05.973Z,71.50
2023-05-20T10:16:50.837Z,72.40
2023-05-20T10:19:32.299Z,72.80
2023-05-20T10:22:05.047Z,71.40
2023-05-20T10:24:38.146Z,70.60
2023-05-20T10:27:09.176Z,72.40
2023-05-20T10:32:30.043Z,74.00
2023-05-20T10:35:05.543Z,72.80
2023-05-20T10:37:40.099Z,74.20
2023-05-20T10:40:19.845Z,74.90
2023-05-20T10:42:49.920Z,73.70
2023-05-20T10:45:27.796Z,73.40
2023-05-20T10:47:57.255Z,74.40
2023-05-20T10:50:35.745Z,73.70
2023-05-20T10:53:13.030Z,73.80
2023-05-20T10:55:51.900Z,75.40
2023-05-20T10:58:20.059Z,75.60
2023-05-20T11:00:50.818Z,74.80
2023-05-20T11:03:18.812Z,75.30
2023-05-20T11:05:49.553Z,74.10
2023-05-20T11:08:27.851Z,74.40
2023-05-20T11:10:59.545Z,74.70
2023-05-20T11:13:27.174Z,74.80
2023-05-20T11:15:54.474Z,74.40
2023-05-20T11:18:21.512Z,74.60
2023-05-20T11:20:48.729Z,74.60
2023-05-20T11:23:16.187Z,74.00
2023-05-20T11:25:43.286Z,73.80
2023-05-20T11:28:14.514Z,73.10
2023-05-20T11:30:43.370Z,71.90
2023-05-20T11:33:12.987Z,71.50
2023-05-20T11:35:54.609Z,71.20
2023-05-20T11:38:22.193Z,70.10
2023-05-20T11:40:56.618Z,70.50
2023-05-20T11:43:24.504Z,69.70
2023-05-20T11:46:01.199Z,67.80
2023-05-20T11:48:28.442Z,68.60
2023-05-20T11:50:57.073Z,68.00
2023-05-20T11:53:25.429Z,67.70
2023-05-20T11:55:56.085Z,66.50
2023-05-20T11:58:31.112Z,66.30
2023-05-20T12:01:08.918Z,67.00
2023-05-20T12:03:41.278Z,66.90
2023-05-20T12:06:08.553Z,64.70
2023-05-20T12:08:35.570Z,65.30
2023-05-20T12:11:02.579Z,66.10
2023-05-20T12:13:29.625Z,67.90
2023-05-20T12:15:56.704Z,68.10
2023-05-20T12:18:23.992Z,69.10
2023-05-20T12:20:51.147Z,67.00
2023-05-20T12:23:18.249Z,67.60
2023-05-20T12:25:47.424Z,68.50
2023-05-20T12:28:14.882Z,69.20
2023-05-20T12:30:42.084Z,71.20
2023-05-20T12:33:09.671Z,74.80
2023-05-20T12:35:39.658Z,75.70
2023-05-20T12:38:07.457Z,77.50
2023-05-20T12:40:35.510Z,78.80
2023-05-20T12:43:04.449Z,78.20
2023-05-20T12:45:32.237Z,78.20
2023-05-20T12:47:59.645Z,78.60
2023-05-20T12:50:27.872Z,79.10
2023-05-20T12:52:55.110Z,79.70
2023-05-20T12:55:22.265Z,78.50
2023-05-20T12:57:50.171Z,78.20
2023-05-20T13:00:17.858Z,79.20
2023-05-20T13:02:44.967Z,79.20
2023-05-20T13:05:12.534Z,78.50
2023-05-20T13:07:40.321Z,78.20
2023-05-20T13:10:08.564Z,77.50
2023-05-20T13:12:36.032Z,76.80
2023-05-20T13:15:03.908Z,77.70
2023-05-20T13:17:31.183Z,79.10
2023-05-20T13:19:58.613Z,77.00
2023-05-20T13:22:25.790Z,75.60
2023-05-20T13:24:52.777Z,73.80
2023-05-20T13:27:19.920Z,72.80
2023-05-20T13:29:47.083Z,71.90
2023-05-20T13:32:14.037Z,70.80
2023-05-20T13:34:41.442Z,71.00
2023-05-20T13:37:08.455Z,71.60
2023-05-20T13:39:36.518Z,70.90
2023-05-20T13:42:04.488Z,69.10
2023-05-20T13:44:32.651Z,70.90
2023-05-20T13:47:00.076Z,70.80
2023-05-20T13:49:27.219Z,73.80
2023-05-20T13:51:54.230Z,75.80
2023-05-20T13:54:22.631Z,77.20
2023-05-20T13:56:49.792Z,79.40
2023-05-20T13:59:17.112Z,81.30
2023-05-20T14:01:45.516Z,83.80
2023-05-20T14:04:13.360Z,83.60
2023-05-20T14:06:40.626Z,82.40
2023-05-20T14:09:11.238Z,80.90
2023-05-20T14:11:38.754Z,80.10
2023-05-20T14:14:05.895Z,80.10
2023-05-20T14:16:33.372Z,79.80
2023-05-20T14:19:01.548Z,77.80
2023-05-20T14:21:28.604Z,80.10
2023-05-20T14:23:55.987Z,79.80
2023-05-20T14:26:23.413Z,79.80
2023-05-20T14:28:50.468Z,78.20
2023-05-20T14:31:17.660Z,78.20
2023-05-20T14:33:44.798Z,78.70
2023-05-20T14:36:12.054Z,77.50
2023-05-20T14:38:39.063Z,77.70
2023-05-20T14:41:06.263Z,75.40
2023-05-20T14:43:33.369Z,74.50
2023-05-20T14:46:05.725Z,72.80
2023-05-20T14:48:32.901Z,72.90
2023-05-20T14:51:00.006Z,72.70
2023-05-20T14:53:27.118Z,73.10
2023-05-20T14:55:54.088Z,73.60
2023-05-20T14:58:21.207Z,74.70
2023-05-20T15:00:48.255Z,73.80
2023-05-20T15:03:15.385Z,73.90
2023-05-20T15:05:42.697Z,74.10
2023-05-20T15:08:09.780Z,74.90
2023-05-20T15:10:37.287Z,74.00
2023-05-20T15:13:04.538Z,74.50
2023-05-20T15:15:31.929Z,75.10
2023-05-20T15:17:59.062Z,75.90
2023-05-20T15:20:26.552Z,76.20
2023-05-20T15:22:54.291Z,76.90
2023-05-20T15:25:21.533Z,77.60
2023-05-20T15:27:49.271Z,76.60
2023-05-20T15:30:17.178Z,76.80
2023-05-20T15:32:44.453Z,76.30
2023-05-20T15:35:11.647Z,75.80
2023-05-20T15:37:38.670Z,74.20
2023-05-20T15:40:06.873Z,73.80
2023-05-20T15:42:33.841Z,75.20
2023-05-20T15:45:02.477Z,75.30
2023-05-20T15:47:29.712Z,75.80
2023-05-20T15:49:57.499Z,75.80
2023-05-20T15:52:24.651Z,76.10
2023-05-20T15:54:51.883Z,76.50
2023-05-20T15:57:19.162Z,76.80
2023-05-20T15:59:46.217Z,76.90
2023-05-20T16:02:13.396Z,78.50
2023-05-20T16:04:40.625Z,79.70
2023-05-20T16:07:07.657Z,80.00
2023-05-20T16:09:34.872Z,81.10
2023-05-20T16:12:02.413Z,81.30
2023-05-20T16:14:29.373Z,81.10
2023-05-20T16:16:56.451Z,81.20
2023-05-20T16:19:24.175Z,82.00
2023-05-20T16:21:51.162Z,81.10
2023-05-20T16:24:18.186Z,81.40
2023-05-20T16:26:45.347Z,81.30
2023-05-20T16:29:13.404Z,80.80
2023-05-20T16:31:42.133Z,81.50
2023-05-20T16:34:09.212Z,81.40
2023-05-20T16:36:36.796Z,81.20
2023-05-20T16:39:04.618Z,80.80
2023-05-20T16:41:31.787Z,81.30
2023-05-20T16:43:59.120Z,80.80
2023-05-20T16:46:26.183Z,81.20
2023-05-20T16:48:53.120Z,81.90
2023-05-20T16:51:20.174Z,82.60
2023-05-20T16:53:47.222Z,82.60
2023-05-20T16:56:14.379Z,82.90
2023-05-20T16:58:41.757Z,83.80
2023-05-20T17:01:08.834Z,83.80
2023-05-20T17:03:36.172Z,83.40
2023-05-20T17:06:03.227Z,82.70
2023-05-20T17:08:30.277Z,83.50
2023-05-20T17:10:59.308Z,82.60
2023-05-20T17:13:26.292Z,81.40
2023-05-20T17:15:53.391Z,81.00
2023-05-20T17:18:20.640Z,81.90
2023-05-20T17:20:47.640Z,82.40
2023-05-20T17:23:15.085Z,83.20
2023-05-20T17:25:42.118Z,83.20
2023-05-20T17:28:09.210Z,83.50
2023-05-20T17:30:36.501Z,84.30
2023-05-20T17:33:03.728Z,85.70
2023-05-20T17:35:31.831Z,86.90
2023-05-20T17:37:58.939Z,87.70
2023-05-20T17:40:26.310Z,88.40
2023-05-20T17:42:53.397Z,89.00
2023-05-20T17:45:20.624Z,89.50
2023-05-20T17:47:47.740Z,89.80
2023-05-20T17:50:16.687Z,90.20
2023-05-20T17:52:44.167Z,90.70
2023-05-20T17:55:11.253Z,90.80
2023-05-20T17:57:38.229Z,91.00
2023-05-20T18:00:06.744Z,91.10
2023-05-20T18:02:33.864Z,91.30
2023-05-20T18:05:01.191Z,91.40
2023-05-20T18:07:28.285Z,91.50
2023-05-20T18:09:55.396Z,92.00
2023-05-20T18:12:22.556Z,91.50
2023-05-20T18:14:49.546Z,91.00
2023-05-20T18:17:16.827Z,90.30
2023-05-20T18:19:43.851Z,90.30
2023-05-20T18:22:11.029Z,90.40
2023-05-20T18:24:38.132Z,90.00
2023-05-20T18:27:05.711Z,89.50
2023-05-20T18:29:32.810Z,89.10
2023-05-20T18:31:59.872Z,89.10
2023-05-20T18:34:26.874Z,88.80
2023-05-20T18:36:53.926Z,89.00
2023-05-20T18:39:21.257Z,89.10
2023-05-20T18:41:49.250Z,89.50
2023-05-20T18:44:17.780Z,89.50
2023-05-20T18:46:45.600Z,89.20
2023-05-20T18:49:12.600Z,89.80
2023-05-20T18:51:41.223Z,89.30
2023-05-20T18:54:08.664Z,88.90
2023-05-20T18:56:36.149Z,87.40
2023-05-20T18:59:03.484Z,88.20
2023-05-20T19:01:31.247Z,88.20
2023-05-20T19:03:58.300Z,88.20
2023-05-20T19:06:25.561Z,89.10
2023-05-20T19:08:52.573Z,89.10
2023-05-20T19:11:19.554Z,89.80
2023-05-20T19:13:47.171Z,90.00
2023-05-20T19:16:14.227Z,90.20
2023-05-20T19:18:41.317Z,90.80
2023-05-20T19:21:08.307Z,91.50
2023-05-20T19:23:35.290Z,92.10
2023-05-20T19:26:02.392Z,92.60
2023-05-20T19:28:29.366Z,93.00
2023-05-20T19:30:56.497Z,93.20
2023-05-20T19:33:23.501Z,93.50
2023-05-20T19:35:50.594Z,93.80
2023-05-20T19:38:17.678Z,94.00
2023-05-20T19:40:45.053Z,94.30
2023-05-20T19:43:12.021Z,94.50
2023-05-20T19:45:39.255Z,94.60
2023-05-20T19:48:07.148Z,94.90
2023-05-20T19:50:34.501Z,95.10
2023-05-20T19:53:06.259Z,95.20
2023-05-20T19:55:35.872Z,95.30
2023-05-20T19:58:03.572Z,95.50
2023-05-20T20:00:30.516Z,95.50
2023-05-20T20:02:57.919Z,95.60
2023-05-20T20:05:26.081Z,95.70
2023-05-20T20:07:53.302Z,95.90
2023-05-20T20:10:20.530Z,96.00
2023-05-20T20:12:47.682Z,96.20
2023-05-20T20:15:14.820Z,96.30
2023-05-20T20:17:45.706Z,96.50
2023-05-20T20:20:14.381Z,96.60
2023-05-20T20:22:42.006Z,96.90
2023-05-20T20:25:09.374Z,97.10
2023-05-20T20:27:36.364Z,97.30
2023-05-20T20:30:03.662Z,97.40
2023-05-20T20:32:30.748Z,97.50
2023-05-20T20:34:58.322Z,97.60
2023-05-20T20:37:26.944Z,97.70
2023-05-20T20:39:55.351Z,97.90
2023-05-20T20:42:26.573Z,98.00
2023-05-20T20:44:53.580Z,98.10
2023-05-20T20:47:20.579Z,98.20
2023-05-20T20:49:47.734Z,98.10
2023-05-20T20:52:14.825Z,98.40
2023-05-20T20:54:43.397Z,98.40
2023-05-20T20:57:11.664Z,98.60
2023-05-20T20:59:39.891Z,98.70
2023-05-20T21:02:07.383Z,98.80
2023-05-20T21:04:34.443Z,98.90
2023-05-20T21:07:02.300Z,99.00
2023-05-20T21:09:29.492Z,99.00
2023-05-20T21:11:57.420Z,99.10
2023-05-20T21:14:25.619Z,99.20
2023-05-20T21:16:52.711Z,99.40
2023-05-20T21:19:19.877Z,99.60
2023-05-20T21:21:48.097Z,99.70
2023-05-20T21:24:15.227Z,99.90
2023-05-20T21:26:42.162Z,99.90
2023-05-20T21:29:12.098Z,99.90
2023-05-20T21:31:39.433Z,99.90
2023-05-20T21:34:06.410Z,99.90
2023-05-20T21:36:33.481Z,99.90
2023-05-20T21:39:00.657Z,99.90
2023-05-20T21:41:27.723Z,99.90
2023-05-20T21:43:54.734Z,99.90
2023-05-20T21:46:21.961Z,99.90
2023-05-20T21:48:49.002Z,99.90
2023-05-20T21:51:16.195Z,99.90
2023-05-20T21:53:43.497Z,99.90
2023-05-20T21:56:10.691Z,99.90
2023-05-20T21:58:41.336Z,99.90
2023-05-20T22:01:10.086Z,99.90
2023-05-20T22:03:38.377Z,99.90
2023-05-20T22:06:06.110Z,99.90
2023-05-20T22:08:35.859Z,99.90
2023-05-20T22:11:07.369Z,99.90
2023-05-20T22:13:35.855Z,99.90
2023-05-20T22:16:05.283Z,99.90
2023-05-20T22:18:32.725Z,99.90
2023-05-20T22:21:00.361Z,99.90
2023-05-20T22:23:28.571Z,99.90
2023-05-20T22:25:56.013Z,99.90
2023-05-20T22:28:23.810Z,99.90
2023-05-20T22:30:51.696Z,99.90
2023-05-20T22:33:18.824Z,99.90
2023-05-20T22:35:46.075Z,99.90
2023-05-20T22:38:13.145Z,99.90
2023-05-20T22:40:40.149Z,99.90
2023-05-20T22:43:07.223Z,99.90
2023-05-20T22:45:34.757Z,99.90
2023-05-20T22:48:02.205Z,99.90
2023-05-20T22:50:29.245Z,99.90
2023-05-20T22:52:56.555Z,99.90
2023-05-20T22:55:24.078Z,99.90
2023-05-20T22:57:51.518Z,99.90
2023-05-20T23:00:19.106Z,99.90
2023-05-20T23:02:49.953Z,99.90
2023-05-20T23:05:17.424Z,99.90
2023-05-20T23:07:45.254Z,99.90
2023-05-20T23:10:12.284Z,99.90
2023-05-20T23:12:39.372Z,99.90
2023-05-20T23:15:07.191Z,99.90
2023-05-20T23:17:34.152Z,99.90
2023-05-20T23:20:01.276Z,99.90
2023-05-20T23:22:28.357Z,99.90
2023-05-20T23:24:55.446Z,99.90
2023-05-20T23:27:22.679Z,99.90
2023-05-20T23:29:49.693Z,99.90
2023-05-20T23:32:16.640Z,99.90
2023-05-20T23:34:43.696Z,99.90
2023-05-20T23:37:10.698Z,99.90
2023-05-20T23:39:37.835Z,99.90
2023-05-20T23:42:05.513Z,99.90
2023-05-20T23:44:32.511Z,99.90
2023-05-20T23:46:59.566Z,99.90
2023-05-20T23:49:27.287Z,99.90
2023-05-20T23:51:54.409Z,99.90
2023-05-20T23:54:22.905Z,99.90
2023-05-20T23:56:50.302Z,99.90
2023-05-20T23:59:17.460Z,99.90
